Time;durP1;ratioP1;P1;durP2;ratioP2;P2;SDS_P1;SDS_P2;PMS_P1;PMS_P2;Temp;Humidity;BMP_temperature;BMP_pressure;BME280_temperature;BME280_humidity;BME280_pressure;Samples;Min_cycle;Max_cycle;Signal;HPM_P1;HPM_P2
2021/04/12 05:01:48;;;;;;;41.20;19.70;;;;;;;15.74;32.19;99327.06;1751303;78;21382;-57
2021/04/12 05:04:53;;;;;;;38.70;18.57;;;;;;;15.72;30.67;99311.88;1778029;80;21164;-58
2021/04/12 05:08:18;;;;;;;31.93;17.98;;;;;;;15.53;31.57;99316.94;1761061;80;21349;-57
2021/04/12 05:11:20;;;;;;;31.25;16.85;;;;;;;15.71;30.59;99308.90;1744123;81;21162;-61
2021/04/12 05:14:46;;;;;;;38.65;16.62;;;;;;;16.04;29.56;99304.88;1755688;80;21201;-50
2021/04/12 05:18:16;;;;;;;33.33;17.40;;;;;;;16.38;28.90;99309.34;1759954;80;21173;-51
2021/04/12 05:21:02;;;;;;;39.88;19.75;;;;;;;16.71;27.83;99307.39;1769955;80;21105;-64
2021/04/12 05:24:28;;;;;;;46.85;27.50;;;;;;;16.87;28.94;99317.02;1756919;80;21182;-59
2021/04/12 05:27:28;;;;;;;34.73;19.57;;;;;;;17.11;27.92;99311.06;1755474;81;21091;-53
2021/04/12 05:30:54;;;;;;;39.08;20.45;;;;;;;17.05;27.19;99306.69;1754198;80;21138;-57
2021/04/12 05:33:52;;;;;;;37.53;20.88;;;;;;;17.01;27.57;99301.02;1776931;79;23154;-53
2021/04/12 05:36:38;;;;;;;38.75;19.02;;;;;;;17.22;27.37;99294.21;1768303;80;21145;-56
2021/04/12 05:39:27;;;;;;;35.23;18.20;;;;;;;17.53;26.99;99302.17;1756917;80;21552;-57
2021/04/12 05:42:30;;;;;;;32.88;17.85;;;;;;;17.68;27.19;99302.95;1729986;80;21198;-54
2021/04/12 05:45:40;;;;;;;32.78;17.48;;;;;;;17.93;26.73;99299.36;1697689;84;21185;-58
2021/04/12 05:48:42;;;;;;;23.62;13.48;;;;;;;17.91;27.04;99298.00;1717847;82;21140;-50
2021/04/12 05:51:40;;;;;;;25.92;13.58;;;;;;;18.14;25.95;99293.80;1703272;82;21596;-49
2021/04/12 05:54:50;;;;;;;23.95;13.72;;;;;;;18.11;25.99;99302.28;1664618;84;21395;-55
2021/04/12 05:58:27;;;;;;;27.50;14.87;;;;;;;18.19;25.84;99300.53;1765845;79;28325;-53
2021/04/12 06:01:45;;;;;;;26.90;15.63;;;;;;;18.30;25.58;99293.48;1733138;82;21169;-57
2021/04/12 06:05:02;;;;;;;26.68;14.95;;;;;;;18.65;25.46;99285.09;1699443;83;21193;-50
2021/04/12 06:08:22;;;;;;;26.93;14.13;;;;;;;18.70;25.47;99289.72;1668811;85;21182;-51
2021/04/12 06:11:32;;;;;;;28.10;14.35;;;;;;;19.08;25.46;99294.91;1644044;86;21191;-53
2021/04/12 06:14:22;;;;;;;26.90;13.45;;;;;;;19.43;25.18;99296.30;1714509;82;21197;-49
2021/04/12 06:22:26;;;;;;;25.43;14.53;;;;;;;20.28;24.45;99291.81;1748526;82;21296;-48
2021/04/12 06:25:59;;;;;;;32.73;13.60;;;;;;;20.32;23.86;99293.44;1723494;81;21660;-52
2021/04/12 06:28:38;;;;;;;33.83;15.45;;;;;;;20.03;24.22;99302.39;1711456;83;21331;-50
2021/04/12 06:31:32;;;;;;;26.35;13.45;;;;;;;20.02;24.54;99300.25;1690805;85;21335;-46
2021/04/12 06:34:51;;;;;;;30.65;13.88;;;;;;;20.17;24.27;99298.17;1683202;84;21330;-46
2021/04/12 06:38:06;;;;;;;26.30;14.25;;;;;;;20.33;23.97;99295.05;1642427;86;21181;-53
2021/04/12 06:41:14;;;;;;;21.80;12.63;;;;;;;20.20;24.20;99299.01;1655923;85;21199;-54
2021/04/12 06:44:17;;;;;;;20.05;11.25;;;;;;;19.99;23.95;99303.42;1712960;84;21162;-58
2021/04/12 06:47:50;;;;;;;20.62;10.28;;;;;;;19.72;23.57;99294.14;1694701;84;21391;-53
2021/04/12 06:51:43;;;;;;;19.92;9.43;;;;;;;19.52;23.47;99297.45;1660291;84;21723;-54
2021/04/12 06:55:37;;;;;;;20.90;10.28;;;;;;;19.27;23.35;99298.05;1667580;84;21225;-50
2021/04/12 06:59:24;;;;;;;23.65;13.60;;;;;;;19.02;24.25;99287.10;1679086;84;21216;-50
2021/04/12 07:03:30;;;;;;;17.98;8.70;;;;;;;18.90;22.28;99286.45;1668537;85;21188;-54
2021/04/12 07:06:54;;;;;;;18.12;9.00;;;;;;;18.34;21.72;99282.56;1633918;85;21165;-51
2021/04/12 07:10:11;;;;;;;20.43;9.08;;;;;;;17.85;22.10;99285.64;1653323;84;22232;-53
2021/04/12 07:13:05;;;;;;;19.17;8.68;;;;;;;17.62;22.68;99277.27;1677641;84;21570;-54
2021/04/12 07:16:09;;;;;;;16.07;7.75;;;;;;;17.45;22.87;99283.41;1676238;85;21378;-50
2021/04/12 07:18:52;;;;;;;14.15;7.40;;;;;;;17.34;22.98;99283.48;1689177;84;21220;-53
2021/04/12 07:22:20;;;;;;;18.90;8.28;;;;;;;17.15;22.32;99277.05;1668152;84;21199;-52
2021/04/12 07:25:36;;;;;;;16.70;8.45;;;;;;;16.88;22.93;99278.16;1658260;85;21209;-51
2021/04/12 07:28:31;;;;;;;17.92;7.90;;;;;;;16.67;22.90;99281.44;1651084;85;21176;-53
2021/04/12 07:31:25;;;;;;;16.60;8.40;;;;;;;16.56;23.10;99268.45;1656983;85;21379;-49
2021/04/12 07:34:24;;;;;;;15.70;8.43;;;;;;;16.47;23.31;99272.55;1693734;84;21142;-56
2021/04/12 07:37:27;;;;;;;17.75;8.43;;;;;;;16.32;23.09;99262.39;1657879;85;21320;-55
2021/04/12 07:40:37;;;;;;;15.70;8.10;;;;;;;16.20;22.74;99268.27;1688752;83;21205;-55
2021/04/12 07:43:30;;;;;;;15.70;8.08;;;;;;;16.05;22.75;99266.08;1681391;83;21368;-56
2021/04/12 07:46:19;;;;;;;17.27;7.87;;;;;;;15.82;23.48;99260.78;1689936;83;21217;-56
2021/04/12 07:49:12;;;;;;;16.10;8.08;;;;;;;15.77;23.86;99254.85;1691643;85;21585;-53
2021/04/12 07:52:20;;;;;;;20.57;8.38;;;;;;;15.78;24.28;99255.14;1720293;83;21153;-53
2021/04/12 07:55:31;;;;;;;17.15;7.90;;;;;;;15.80;24.08;99256.22;1720124;83;21581;-51
2021/04/12 07:58:32;;;;;;;17.62;9.23;;;;;;;15.82;24.02;99254.13;1702584;83;21210;-51
2021/04/12 08:01:46;;;;;;;18.45;9.90;;;;;;;15.76;23.56;99258.52;1701320;84;21163;-53
2021/04/12 08:04:28;;;;;;;22.98;9.73;;;;;;;15.72;23.60;99254.73;1670582;84;21626;-50
2021/04/12 08:07:38;;;;;;;16.52;9.38;;;;;;;15.75;23.75;99254.25;1697003;84;21155;-49
2021/04/12 08:11:00;;;;;;;16.55;8.80;;;;;;;15.84;24.02;99256.06;1695614;83;21213;-49
2021/04/12 08:14:09;;;;;;;18.82;9.53;;;;;;;15.90;23.39;99253.28;1694689;85;21328;-54
2021/04/12 08:17:18;;;;;;;21.17;9.55;;;;;;;15.86;23.57;99249.45;1716780;82;21229;-57
2021/04/12 08:20:38;;;;;;;16.57;8.23;;;;;;;15.89;23.80;99246.87;1630545;88;21826;-54
2021/04/12 08:23:42;;;;;;;19.65;8.90;;;;;;;15.86;23.85;99242.81;1722312;83;21198;-57
2021/04/12 08:26:40;;;;;;;21.33;9.33;;;;;;;15.87;24.17;99245.75;1719477;83;21193;-58
2021/04/12 08:29:48;;;;;;;19.70;8.95;;;;;;;15.97;24.61;99235.87;1694743;85;21175;-49
2021/04/12 08:32:58;;;;;;;19.57;10.45;;;;;;;16.06;24.29;99235.00;1694874;85;21159;-55
2021/04/12 08:36:23;;;;;;;18.85;9.20;;;;;;;16.04;23.70;99228.56;1640463;86;21189;-54
2021/04/12 08:39:33;;;;;;;18.95;9.28;;;;;;;15.97;22.99;99233.73;1678219;83;21190;-49
2021/04/12 08:42:27;;;;;;;17.07;8.73;;;;;;;15.85;23.28;99225.25;1702333;83;21187;-51
2021/04/12 08:45:28;;;;;;;20.90;9.05;;;;;;;15.86;23.88;99217.55;1694539;85;21199;-51
2021/04/12 08:48:35;;;;;;;21.97;9.30;;;;;;;15.98;24.04;99214.08;1694525;85;21288;-49
2021/04/12 08:51:28;;;;;;;17.95;9.65;;;;;;;16.11;23.87;99209.30;1715642;82;21547;-53
2021/04/12 08:54:38;;;;;;;22.15;10.70;;;;;;;16.20;23.84;99198.59;1702427;82;21172;-47
2021/04/12 08:57:57;;;;;;;19.00;9.90;;;;;;;16.37;24.14;99206.63;1699264;83;21201;-52
2021/04/12 09:01:17;;;;;;;16.93;8.55;;;;;;;16.54;23.68;99200.03;1703342;82;21885;-56
2021/04/12 09:04:02;;;;;;;23.35;9.95;;;;;;;16.55;23.84;99201.64;1706933;82;21119;-52
2021/04/12 09:07:09;;;;;;;20.43;10.45;;;;;;;16.62;23.42;99192.98;1696592;84;21364;-55
2021/04/12 09:10:11;;;;;;;18.65;9.23;;;;;;;16.62;23.12;99191.66;1696389;84;21247;-54
2021/04/12 09:13:06;;;;;;;19.05;10.25;;;;;;;16.58;23.63;99183.89;1692328;82;21329;-52
2021/04/12 09:16:08;;;;;;;22.02;10.23;;;;;;;16.60;23.95;99169.81;1676338;84;21234;-54
2021/04/12 09:19:13;;;;;;;21.27;10.50;;;;;;;16.74;23.92;99170.33;1656357;86;21327;-57
2021/04/12 09:22:27;;;;;;;20.55;10.23;;;;;;;16.90;23.53;99158.90;1640107;86;21216;-59
2021/04/12 09:25:49;;;;;;;18.90;10.25;;;;;;;16.98;22.23;99163.04;1655697;86;21343;-62
2021/04/12 09:28:29;;;;;;;19.55;9.65;;;;;;;16.83;22.84;99152.93;1653302;86;21638;-52
2021/04/12 09:31:34;;;;;;;20.40;10.40;;;;;;;16.92;22.97;99146.70;1656544;86;21371;-55
2021/04/12 09:34:44;;;;;;;20.68;9.98;;;;;;;17.08;23.21;99148.53;1621938;84;21790;-53
2021/04/12 09:38:10;;;;;;;19.42;10.40;;;;;;;17.30;23.04;99137.94;1659722;85;21190;-53
2021/04/12 09:41:06;;;;;;;23.90;11.05;;;;;;;17.43;22.69;99133.63;1654373;86;21198;-53
2021/04/12 09:44:09;;;;;;;20.85;10.63;;;;;;;17.56;22.75;99132.45;1655907;86;21182;-54
2021/04/12 09:47:03;;;;;;;21.62;11.30;;;;;;;17.54;22.19;99122.55;1655433;85;21194;-55
2021/04/12 09:50:01;;;;;;;21.87;11.10;;;;;;;17.43;22.25;99123.45;1655532;86;21230;-56
2021/04/12 09:53:08;;;;;;;99.45;50.05;;;;;;;17.35;22.42;99119.36;1659223;84;21205;-52
2021/04/12 09:56:14;;;;;;;39.73;20.25;;;;;;;17.33;22.30;99119.34;1676520;84;21372;-58
2021/04/12 09:59:13;;;;;;;29.20;15.00;;;;;;;17.36;22.50;99114.31;1697126;83;21231;-59
2021/04/12 10:02:25;;;;;;;23.35;12.63;;;;;;;17.47;22.60;99109.93;1702087;83;21158;-59
2021/04/12 10:05:25;;;;;;;21.27;11.57;;;;;;;17.57;21.99;99104.74;1713715;83;21162;-64
2021/04/12 10:08:24;;;;;;;22.13;11.80;;;;;;;17.53;22.10;99104.42;1717625;83;21161;-48
2021/04/12 10:11:15;;;;;;;22.25;11.38;;;;;;;17.59;22.41;99101.29;1710924;82;21162;-58
2021/04/12 10:14:05;;;;;;;28.17;11.50;;;;;;;17.74;22.04;99097.52;1666053;83;21182;-52
2021/04/12 10:16:37;;;;;;;26.85;11.30;;;;;;;17.87;21.91;99092.86;1694639;82;21213;-60
2021/04/12 10:19:16;;;;;;;21.82;11.10;;;;;;;18.02;21.84;99087.71;1704323;82;21190;-57
2021/04/12 10:21:55;;;;;;;19.95;11.25;;;;;;;18.14;21.54;99083.03;1703878;82;21161;-56
2021/04/12 10:24:57;;;;;;;22.02;11.00;;;;;;;18.27;21.04;99085.83;1710744;82;21194;-56
2021/04/12 10:27:37;;;;;;;21.80;11.85;;;;;;;18.34;21.03;99081.08;1696200;82;21182;-57
2021/04/12 10:30:29;;;;;;;24.12;12.58;;;;;;;18.42;21.08;99077.97;1709148;83;21193;-55
2021/04/12 10:33:02;;;;;;;20.57;11.83;;;;;;;18.51;20.87;99073.77;1670514;85;21169;-53
2021/04/12 10:35:47;;;;;;;21.05;11.63;;;;;;;18.62;20.91;99069.32;1667706;84;21629;-51
2021/04/12 10:38:31;;;;;;;22.80;11.55;;;;;;;18.70;20.73;99065.42;1718203;82;21316;-65
2021/04/12 10:41:34;;;;;;;21.42;11.95;;;;;;;18.81;20.60;99056.43;1746888;82;21182;-53
2021/04/12 10:44:34;;;;;;;21.05;11.05;;;;;;;18.88;20.67;99054.88;1736361;82;21163;-57
2021/04/12 10:47:37;;;;;;;21.30;11.83;;;;;;;18.96;20.69;99059.19;1698822;82;21598;-58
2021/04/12 10:50:35;;;;;;;19.67;10.98;;;;;;;19.06;20.49;99057.92;1692017;82;21276;-54
2021/04/12 10:53:37;;;;;;;21.75;12.63;;;;;;;19.09;20.22;99047.23;1693587;82;21583;-55
2021/04/12 10:56:43;;;;;;;23.92;13.95;;;;;;;19.07;20.17;99043.49;1664480;82;21184;-49
2021/04/12 10:59:51;;;;;;;23.30;12.55;;;;;;;19.00;19.61;99038.12;1676751;82;21213;-58
2021/04/12 11:02:46;;;;;;;20.85;12.75;;;;;;;18.82;19.47;99044.69;1671312;83;21162;-52
2021/04/12 11:05:19;;;;;;;22.05;12.65;;;;;;;18.73;19.87;99038.20;1685346;82;21567;-53
2021/04/12 11:08:19;;;;;;;22.22;12.60;;;;;;;18.77;19.86;99035.30;1696328;84;21203;-56
2021/04/12 11:11:19;;;;;;;23.73;13.25;;;;;;;18.66;19.88;99030.38;1699797;82;21512;-57
2021/04/12 11:14:20;;;;;;;23.02;12.85;;;;;;;18.60;20.14;99030.60;1711987;82;21642;-56
2021/04/12 11:17:03;;;;;;;22.58;12.65;;;;;;;18.66;20.26;99027.71;1654158;82;21134;-57
2021/04/12 11:19:44;;;;;;;24.82;12.70;;;;;;;18.69;19.73;99017.86;1698129;82;21122;-51
2021/04/12 11:22:39;;;;;;;22.98;13.08;;;;;;;18.73;20.10;99018.17;1658076;83;21198;-50
2021/04/12 11:25:36;;;;;;;21.12;12.70;;;;;;;18.91;19.95;99020.42;1604103;87;21161;-52
2021/04/12 11:28:53;;;;;;;21.65;13.15;;;;;;;19.11;19.53;99011.73;1798618;78;23045;-57
2021/04/12 11:31:54;;;;;;;22.15;12.60;;;;;;;19.08;19.68;99006.89;1768601;79;21157;-56
2021/04/12 11:34:37;;;;;;;22.22;13.05;;;;;;;19.22;19.92;99003.23;1780468;79;21161;-57
2021/04/12 11:37:24;;;;;;;20.82;12.20;;;;;;;19.43;19.81;98999.56;1776312;79;21557;-56
2021/04/12 11:39:57;;;;;;;20.15;11.60;;;;;;;19.60;19.92;98998.05;1786722;79;21169;-55
2021/04/12 11:42:32;;;;;;;23.22;13.00;;;;;;;19.80;20.07;98990.09;1778468;79;21158;-46
2021/04/12 11:45:12;;;;;;;22.10;12.30;;;;;;;19.96;19.59;98985.58;1731368;81;21197;-57
2021/04/12 11:47:54;;;;;;;20.12;12.45;;;;;;;20.05;19.74;98988.52;1760515;79;21169;-56
2021/04/12 11:50:37;;;;;;;24.70;12.93;;;;;;;20.16;19.14;98974.88;1757640;79;21165;-50
2021/04/12 11:53:32;;;;;;;24.52;13.30;;;;;;;20.18;19.40;98975.94;1769720;79;21110;-55
2021/04/12 11:56:33;;;;;;;21.10;12.40;;;;;;;20.23;18.84;98975.14;1717359;79;21157;-53
2021/04/12 11:59:12;;;;;;;;;;;;;;;20.21;19.00;98966.59;1749605;81;21312;-51
2021/04/12 12:01:51;;;;;;;23.95;13.80;;;;;;;20.30;18.67;98967.13;1746952;81;20165;-55
2021/04/12 12:04:57;;;;;;;22.25;13.08;;;;;;;20.20;18.36;98953.75;1747377;81;21180;-57
2021/04/12 12:07:50;;;;;;;23.30;14.07;;;;;;;20.14;18.84;98960.17;1741738;81;21166;-54
2021/04/12 12:10:55;;;;;;;22.85;13.43;;;;;;;20.21;18.40;98948.66;1719564;81;21142;-55
2021/04/12 12:13:51;;;;;;;23.85;13.05;;;;;;;20.14;18.40;98950.27;1742107;81;21189;-55
2021/04/12 12:16:26;;;;;;;23.45;12.98;;;;;;;19.88;18.55;98942.75;1767186;81;21209;-57
2021/04/12 12:19:25;;;;;;;21.07;13.55;;;;;;;19.64;18.60;98941.65;1776780;81;21188;-58
2021/04/12 12:22:23;;;;;;;21.50;12.70;;;;;;;19.54;18.72;98939.72;1776646;81;21185;-49
2021/04/12 12:25:11;;;;;;;23.92;12.58;;;;;;;19.60;18.83;98933.34;1748748;81;21182;-50
2021/04/12 12:28:01;;;;;;;23.02;12.93;;;;;;;19.82;19.23;98926.96;1721513;81;21185;-59
2021/04/12 12:30:34;;;;;;;20.45;12.60;;;;;;;20.21;19.38;98929.92;1716090;83;21181;-56
2021/04/12 12:33:09;;;;;;;21.52;11.97;;;;;;;20.56;18.28;98928.30;1716725;83;21160;-50
2021/04/12 12:36:09;;;;;;;20.57;12.40;;;;;;;20.64;17.71;98922.38;1718715;82;21218;-52
2021/04/12 12:39:06;;;;;;;20.70;12.82;;;;;;;20.67;17.58;98911.13;1745529;82;21210;-53
2021/04/12 12:41:39;;;;;;;23.87;12.50;;;;;;;20.73;17.96;98920.76;1745558;82;21321;-62
2021/04/12 12:44:12;;;;;;;26.00;12.47;;;;;;;20.81;17.37;98922.86;1721338;82;21226;-56
2021/04/12 12:46:44;;;;;;;24.15;13.30;;;;;;;20.74;17.40;98916.20;1745351;82;21182;-59
2021/04/12 12:49:29;;;;;;;23.00;12.58;;;;;;;20.60;18.14;98913.30;1739825;82;21142;-57
2021/04/12 12:52:04;;;;;;;21.55;12.88;;;;;;;20.65;17.99;98910.61;1715825;84;21197;-56
2021/04/12 12:54:52;;;;;;;23.00;12.73;;;;;;;20.78;17.88;98909.23;1715326;84;21205;-58
2021/04/12 12:57:33;;;;;;;20.90;12.03;;;;;;;20.75;17.42;98909.22;1715906;83;21235;-51
2021/04/12 13:00:24;;;;;;;23.07;13.40;;;;;;;20.59;17.77;98908.48;1716093;84;21189;-55
2021/04/12 13:02:53;;;;;;;23.32;13.35;;;;;;;20.30;18.01;98902.89;1715839;84;21190;-57
2021/04/12 13:05:31;;;;;;;21.40;12.70;;;;;;;20.18;18.41;98904.22;1721391;82;21178;-52
2021/04/12 13:08:24;;;;;;;25.12;13.50;;;;;;;20.23;18.26;98908.23;1744998;82;21328;-54
2021/04/12 13:10:55;;;;;;;22.85;13.65;;;;;;;20.30;18.32;98900.72;1712779;84;21291;-58
2021/04/12 13:13:29;;;;;;;23.77;14.20;;;;;;;20.45;18.55;98910.08;1726876;82;21170;-53
2021/04/12 13:16:15;;;;;;;23.50;14.60;;;;;;;20.41;18.64;98898.30;1728706;82;21177;-52
2021/04/12 13:19:02;;;;;;;22.58;13.85;;;;;;;20.29;18.46;98895.91;1738733;82;21188;-49
2021/04/12 13:21:36;;;;;;;26.00;15.55;;;;;;;19.97;18.41;98906.92;1741646;82;21221;-53
2021/04/12 13:24:27;;;;;;;26.87;16.20;;;;;;;19.61;18.87;98900.72;1702498;83;21284;-59
2021/04/12 13:27:10;;;;;;;23.50;14.90;;;;;;;19.40;19.20;98903.87;1716776;83;21173;-48
2021/04/12 13:29:59;;;;;;;27.15;15.43;;;;;;;19.21;19.43;98905.41;1719738;83;21122;-53
2021/04/12 13:32:38;;;;;;;23.95;13.35;;;;;;;19.00;19.51;98909.36;1724900;82;21161;-51
2021/04/12 13:35:19;;;;;;;25.17;15.35;;;;;;;18.78;19.40;98905.52;1720910;81;21209;-49
2021/04/12 13:37:58;;;;;;;22.60;14.07;;;;;;;18.61;19.68;98904.06;1717236;83;21137;-49
2021/04/12 13:40:49;;;;;;;26.75;15.23;;;;;;;18.45;19.61;98907.97;1717815;83;21298;-47
2021/04/12 13:43:20;;;;;;;36.80;22.90;;;;;;;18.33;20.24;98906.55;1703110;83;22276;-52
2021/04/12 13:45:49;;;;;;;39.48;24.92;;;;;;;18.30;20.23;98906.02;1727692;81;21129;-56
2021/04/12 13:48:24;;;;;;;35.08;22.20;;;;;;;18.26;19.87;98901.45;1765087;81;21153;-52
2021/04/12 13:51:09;;;;;;;27.13;16.80;;;;;;;18.17;19.90;98893.09;1764807;81;21173;-63
2021/04/12 13:53:51;;;;;;;28.12;16.90;;;;;;;18.11;20.04;98899.99;1765020;81;21153;-60
2021/04/12 13:56:53;;;;;;;31.55;18.45;;;;;;;18.00;20.22;98893.23;1731900;81;21589;-57
2021/04/12 13:59:32;;;;;;;32.50;20.57;;;;;;;17.89;20.40;98900.91;1671692;82;21181;-53
2021/04/12 14:02:23;;;;;;;28.57;16.45;;;;;;;17.80;20.89;98894.95;1721585;82;21179;-54
2021/04/12 14:04:56;;;;;;;31.17;18.02;;;;;;;17.72;20.54;98907.70;1710982;84;21820;-54
